Airfield :
LOGIN :

Register | Disclaimer

   EN    FR    IT 

 










Legend :    VFR   Marginal VFR   IFR   Intensive IFR   Very Intensive IFR
Visi :
Ceiling :
>= 8 km
>= 3000ft
5 to 8 km
1000 to 3000 ft
1500m to 5 km
500 to 1000 ft
800 to 1500m
200 to 500 ft
< 800m
< 200 ft
Symbols :   Thunderstorms  Fog  Heavy snow  Heavy precipitations  Wind > 20 kt
SIGMETs :     Misc.  Thunderstorms  Icing  Turbulence  Mountain Waves  Volcanic Ashes







- Airport Elevation : 465 ft
- IATA code : LEJ


EDDP - Leipzig Halle

CURRENT METAR :
  • 220850Z 21011KT 9999 -RA BKN028 08/06 Q1010 NOSIG

EXPIRED METARs :
  • 220820Z 21013KT 9999 BKN029 09/05 Q1009 NOSIG
  • 220750Z 22013KT 9999 BKN033 09/05 Q1009 NOSIG
  • 220720Z 22012KT 9999 SCT036 BKN055 08/05 Q1009 NOSIG
  • 220650Z 22012KT CAVOK 08/05 Q1009 NOSIG
  • 220620Z 22013KT CAVOK 08/05 Q1008 NOSIG

TAF TAF EDDP
Valid from the 22 at 06:00 until the 23 at 06:00 UTC


220500Z 2206/2306 20012KT 9999 BKN025
TEMPO 2206/2213 22015G25KT
No reported NOTAMs for that airfield.



MET'MAP, your aeronautical weather chart ! - Copyright ORBIFLY December 2007 - Disclaimer

ORBIFLY MET'MAP TEAM :

Programming & Development : Alexandra Zaïnal
Concept & Development : Baudouin d'Aumeries
Co-Development & Prog : Marc-Olivier Méhu
Technical & hardware support : Manuel Goepfert

Contact : metmap@orbifly.com




SOURCES & CREDITS :

   NOAA